createdAt,value
2022-09-05T00:02:39.197Z,25.30
2022-09-05T00:05:38.522Z,25.20
2022-09-05T00:08:21.858Z,25.20
2022-09-05T00:11:16.725Z,25.20
2022-09-05T00:13:40.665Z,25.30
2022-09-05T00:16:30.409Z,25.20
2022-09-05T00:24:19.669Z,25.20
2022-09-05T00:24:28.686Z,25.20
2022-09-05T00:25:20.878Z,25.20
2022-09-05T00:27:47.586Z,25.30
2022-09-05T00:31:06.907Z,25.20
2022-09-05T00:33:17.879Z,25.20
2022-09-05T00:35:57.412Z,25.20
2022-09-05T00:38:36.893Z,25.20
2022-09-05T00:41:06.012Z,25.20
2022-09-05T00:43:34.804Z,25.10
2022-09-05T00:46:04.220Z,25.10
2022-09-05T00:48:36.820Z,25.20
2022-09-05T00:51:13.482Z,25.20
2022-09-05T00:53:47.914Z,25.20
2022-09-05T00:56:23.521Z,25.20
2022-09-05T00:59:23.344Z,25.20
2022-09-05T01:01:55.012Z,25.10
2022-09-05T01:04:31.950Z,25.20
2022-09-05T01:07:08.711Z,25.20
2022-09-05T01:10:03.996Z,25.10
2022-09-05T01:12:42.020Z,25.20
2022-09-05T01:15:24.151Z,25.10
2022-09-05T01:18:18.992Z,25.20
2022-09-05T01:20:56.893Z,25.20
2022-09-05T01:23:49.470Z,25.10
2022-09-05T01:26:29.977Z,25.10
2022-09-05T01:29:17.165Z,25.10
2022-09-05T01:31:55.931Z,25.10
2022-09-05T01:34:31.846Z,25.10
2022-09-05T01:37:04.827Z,25.10
2022-09-05T01:40:14.922Z,25.10
2022-09-05T01:42:33.545Z,25.10
2022-09-05T01:45:04.245Z,25.10
2022-09-05T01:47:42.391Z,25.10
2022-09-05T01:50:17.061Z,25.00
2022-09-05T01:53:06.021Z,25.10
2022-09-05T01:56:04.691Z,25.10
2022-09-05T01:58:50.600Z,25.00
2022-09-05T02:01:26.643Z,25.00
2022-09-05T02:04:22.552Z,25.00
2022-09-05T02:06:55.789Z,25.00
2022-09-05T02:10:01.175Z,25.10
2022-09-05T02:12:36.494Z,25.10
2022-09-05T02:15:06.183Z,25.10
2022-09-05T02:17:50.960Z,25.00
2022-09-05T02:20:23.731Z,25.00
2022-09-05T02:22:55.704Z,25.00
2022-09-05T02:26:02.451Z,25.10
2022-09-05T02:28:16.197Z,25.20
2022-09-05T02:31:19.241Z,25.20
2022-09-05T02:33:37.079Z,25.20
2022-09-05T02:36:07.220Z,25.20
2022-09-05T02:44:39.470Z,25.20
2022-09-05T02:45:19.111Z,25.10
2022-09-05T02:45:21.089Z,25.20
2022-09-05T02:47:12.677Z,25.10
2022-09-05T02:50:55.799Z,25.10
2022-09-05T02:57:29.586Z,25.00
2022-09-05T02:57:37.799Z,25.00
2022-09-05T02:58:26.220Z,25.00
2022-09-05T03:00:56.873Z,25.00
2022-09-05T03:03:28.693Z,25.00
2022-09-05T03:06:00.665Z,25.00
2022-09-05T03:08:48.617Z,25.00
2022-09-05T03:11:55.474Z,25.00
2022-09-05T03:15:00.008Z,24.90
2022-09-05T03:17:45.532Z,24.90
2022-09-05T03:20:53.176Z,24.90
2022-09-05T03:23:45.958Z,24.90
2022-09-05T03:26:51.379Z,24.90
2022-09-05T03:30:08.474Z,24.80
2022-09-05T03:33:17.635Z,24.80
2022-09-05T03:36:08.874Z,24.80
2022-09-05T03:39:12.938Z,24.80
2022-09-05T03:41:59.413Z,24.80
2022-09-05T03:44:35.060Z,24.80
2022-09-05T03:47:21.604Z,24.80
2022-09-05T03:52:48.503Z,24.80
2022-09-05T03:57:13.650Z,24.70
2022-09-05T03:57:24.631Z,24.70
2022-09-05T03:59:25.489Z,24.80
2022-09-05T04:03:21.582Z,24.70
2022-09-05T04:08:15.901Z,24.70
2022-09-05T04:08:20.856Z,24.80
2022-09-05T04:10:29.569Z,24.70
2022-09-05T04:13:02.136Z,24.70
2022-09-05T04:15:34.475Z,24.70
2022-09-05T04:18:05.101Z,24.70
2022-09-05T04:20:40.564Z,24.70
2022-09-05T04:23:14.181Z,24.70
2022-09-05T04:25:56.894Z,24.70
2022-09-05T04:28:48.876Z,24.70
2022-09-05T04:31:27.352Z,24.70
2022-09-05T04:34:01.531Z,24.70
2022-09-05T04:36:34.062Z,24.70
2022-09-05T04:39:10.440Z,24.70
2022-09-05T04:41:41.154Z,24.70
2022-09-05T04:44:13.038Z,24.70
2022-09-05T04:46:47.857Z,24.70
2022-09-05T04:49:17.941Z,24.60
2022-09-05T04:52:01.251Z,24.60
2022-09-05T04:54:32.948Z,24.60
2022-09-05T04:57:05.401Z,24.60
2022-09-05T05:05:36.507Z,24.60
2022-09-05T05:06:08.356Z,24.60
2022-09-05T05:06:13.325Z,24.60
2022-09-05T05:08:17.256Z,24.60
2022-09-05T05:14:21.642Z,24.60
2022-09-05T05:18:06.381Z,24.50
2022-09-05T05:18:12.787Z,24.60
2022-09-05T05:19:40.985Z,24.60
2022-09-05T05:22:14.916Z,24.60
2022-09-05T05:24:44.314Z,24.60
2022-09-05T05:27:17.452Z,24.60
2022-09-05T05:29:47.631Z,24.60
2022-09-05T05:32:31.720Z,24.60
2022-09-05T05:35:10.281Z,24.50
2022-09-05T05:37:40.866Z,24.60
2022-09-05T05:40:11.480Z,24.60
2022-09-05T05:42:40.440Z,24.60
2022-09-05T05:45:10.731Z,24.60
2022-09-05T05:47:46.136Z,24.60
2022-09-05T05:50:19.748Z,24.60
2022-09-05T05:53:01.220Z,24.60
2022-09-05T05:55:56.889Z,24.60
2022-09-05T05:58:33.811Z,24.60
2022-09-05T06:01:50.215Z,24.60
2022-09-05T06:04:54.886Z,24.70
2022-09-05T06:07:26.858Z,24.80
2022-09-05T06:14:50.578Z,24.80
2022-09-05T06:15:02.948Z,24.90
2022-09-05T06:16:57.494Z,24.90
2022-09-05T06:21:38.923Z,25.00
2022-09-05T06:23:06.991Z,25.10
2022-09-05T06:25:57.420Z,25.20
2022-09-05T06:28:33.096Z,25.20
2022-09-05T06:31:29.871Z,25.30
2022-09-05T06:34:27.913Z,25.30
2022-09-05T06:37:00.103Z,25.30
2022-09-05T06:39:40.074Z,25.40
2022-09-05T06:42:40.637Z,25.40
2022-09-05T06:45:28.907Z,25.50
2022-09-05T06:48:00.030Z,25.50
2022-09-05T06:50:54.631Z,25.50
2022-09-05T06:53:35.363Z,25.60
2022-09-05T06:56:11.013Z,25.60
2022-09-05T06:59:30.542Z,25.70
2022-09-05T07:02:01.701Z,25.70
2022-09-05T07:05:24.573Z,25.70
2022-09-05T07:07:25.064Z,25.80
2022-09-05T07:09:59.121Z,25.80
2022-09-05T07:12:30.258Z,25.80
2022-09-05T07:15:09.330Z,25.80
2022-09-05T07:18:09.032Z,25.80
2022-09-05T07:21:17.438Z,25.80
2022-09-05T07:24:07.062Z,25.80
2022-09-05T07:26:43.394Z,25.80
2022-09-05T07:29:12.274Z,25.80
2022-09-05T07:31:43.118Z,25.80
2022-09-05T07:34:20.786Z,25.90
2022-09-05T07:37:14.043Z,25.80
2022-09-05T07:40:25.419Z,25.90
2022-09-05T07:43:09.054Z,25.90
2022-09-05T07:46:14.273Z,25.90
2022-09-05T07:48:58.269Z,25.90
2022-09-05T07:56:48.824Z,25.90
2022-09-05T07:57:50.222Z,25.90
2022-09-05T08:00:37.033Z,25.90
2022-09-05T08:03:37.594Z,25.80
2022-09-05T08:06:46.419Z,25.80
2022-09-05T08:10:06.856Z,25.80
2022-09-05T08:12:33.125Z,25.80
2022-09-05T08:15:27.868Z,25.80
2022-09-05T08:18:27.663Z,25.80
2022-09-05T08:21:16.848Z,25.80
2022-09-05T08:24:12.876Z,25.90
2022-09-05T08:26:48.304Z,25.90
2022-09-05T08:29:41.309Z,25.90
2022-09-05T08:32:11.480Z,25.90
2022-09-05T08:34:47.296Z,25.90
2022-09-05T08:37:26.517Z,25.80
2022-09-05T08:40:10.368Z,25.80
2022-09-05T08:42:55.780Z,25.90
2022-09-05T08:46:41.284Z,25.90
2022-09-05T08:49:21.471Z,25.80
2022-09-05T08:52:07.890Z,25.90
2022-09-05T08:54:46.251Z,25.90
2022-09-05T08:57:28.218Z,25.90
2022-09-05T09:00:20.330Z,25.90
2022-09-05T09:03:07.002Z,25.90
2022-09-05T09:06:15.841Z,25.90
2022-09-05T09:09:05.532Z,25.90
2022-09-05T09:11:47.203Z,25.90
2022-09-05T09:14:45.728Z,25.90
2022-09-05T09:17:50.792Z,25.90
2022-09-05T09:20:45.052Z,26.00
2022-09-05T09:23:32.017Z,26.00
2022-09-05T09:26:21.088Z,25.90
2022-09-05T09:29:20.424Z,25.90
2022-09-05T09:32:12.319Z,25.90
2022-09-05T09:35:28.915Z,25.90
2022-09-05T09:38:13.930Z,25.90
2022-09-05T09:41:25.776Z,25.90
2022-09-05T09:44:22.928Z,26.00
2022-09-05T09:47:16.292Z,25.90
2022-09-05T09:50:12.522Z,25.90
2022-09-05T09:53:03.819Z,25.90
2022-09-05T09:55:50.938Z,25.90
2022-09-05T09:58:47.060Z,26.00
2022-09-05T10:01:53.570Z,26.00
2022-09-05T10:10:34.661Z,26.00
2022-09-05T10:10:51.339Z,26.00
2022-09-05T10:14:51.079Z,26.00
2022-09-05T10:17:49.858Z,26.00
2022-09-05T10:21:15.023Z,26.00
2022-09-05T10:24:10.239Z,26.00
2022-09-05T10:27:00.827Z,25.90
2022-09-05T10:29:52.689Z,25.90
2022-09-05T10:35:11.771Z,26.00
2022-09-05T10:35:24.127Z,26.00
2022-09-05T10:38:15.242Z,26.00
2022-09-05T10:41:20.867Z,26.10
2022-09-05T10:43:59.566Z,26.10
2022-09-05T10:46:51.507Z,26.10
2022-09-05T10:49:30.687Z,26.10
2022-09-05T10:52:20.467Z,26.10
2022-09-05T10:55:14.030Z,26.10
2022-09-05T10:58:01.696Z,26.10
2022-09-05T11:02:20.472Z,26.10
2022-09-05T11:04:12.492Z,26.10
2022-09-05T11:07:06.879Z,26.20
2022-09-05T11:10:01.968Z,26.20
2022-09-05T11:12:44.676Z,26.20
2022-09-05T11:15:32.291Z,26.20
2022-09-05T11:18:15.835Z,26.20
2022-09-05T11:21:09.657Z,26.20
2022-09-05T11:23:40.785Z,26.20
2022-09-05T11:26:40.500Z,26.20
2022-09-05T11:29:19.701Z,26.20
2022-09-05T11:33:01.766Z,26.20
2022-09-05T11:39:59.857Z,26.30
2022-09-05T11:40:02.118Z,26.30
2022-09-05T11:42:17.925Z,26.30
2022-09-05T11:45:09.522Z,26.30
2022-09-05T11:48:08.247Z,26.30
2022-09-05T11:51:33.467Z,26.30
2022-09-05T11:54:31.470Z,26.30
2022-09-05T11:57:33.272Z,26.30
2022-09-05T12:00:32.155Z,26.30
2022-09-05T12:04:03.696Z,26.30
2022-09-05T12:07:30.390Z,26.30
2022-09-05T12:10:46.220Z,26.30
2022-09-05T12:13:49.065Z,26.30
2022-09-05T12:19:29.630Z,26.30
2022-09-05T12:22:26.993Z,26.30
2022-09-05T12:27:36.979Z,26.30
2022-09-05T12:29:27.477Z,26.30
2022-09-05T12:33:49.167Z,26.30
2022-09-05T12:36:11.564Z,26.30
2022-09-05T12:40:28.808Z,26.30
2022-09-05T12:41:38.702Z,26.30
2022-09-05T12:44:42.524Z,26.30
2022-09-05T12:47:19.437Z,26.30
2022-09-05T12:50:14.852Z,26.30
2022-09-05T12:52:52.166Z,26.30
2022-09-05T12:55:31.282Z,26.30
2022-09-05T13:02:57.166Z,26.30
2022-09-05T13:03:07.313Z,26.30
2022-09-05T13:04:18.399Z,26.30
2022-09-05T13:06:57.146Z,26.30
2022-09-05T13:11:03.821Z,26.30
2022-09-05T13:14:54.431Z,26.40
2022-09-05T13:16:03.760Z,26.30
2022-09-05T13:18:54.041Z,26.40
2022-09-05T13:21:30.151Z,26.30
2022-09-05T13:24:10.404Z,26.30
2022-09-05T13:26:47.097Z,26.30
2022-09-05T13:29:35.121Z,26.30
2022-09-05T13:38:01.200Z,26.40
2022-09-05T13:38:10.557Z,26.30
2022-09-05T13:38:50.426Z,26.30
2022-09-05T13:41:30.348Z,26.40
2022-09-05T13:44:27.601Z,26.40
2022-09-05T13:47:28.761Z,26.40
2022-09-05T13:50:19.659Z,26.40
2022-09-05T13:53:03.514Z,26.30
2022-09-05T13:55:50.348Z,26.40
2022-09-05T13:58:42.812Z,26.40
2022-09-05T14:01:57.082Z,26.40
2022-09-05T14:05:06.621Z,26.40
2022-09-05T14:08:19.815Z,26.30
2022-09-05T14:11:15.428Z,26.30
2022-09-05T14:14:14.252Z,26.30
2022-09-05T14:16:53.611Z,26.30
2022-09-05T14:19:45.688Z,26.40
2022-09-05T14:22:34.690Z,26.30
2022-09-05T14:25:21.044Z,26.30
2022-09-05T14:28:00.085Z,26.30
2022-09-05T14:33:39.662Z,26.30
2022-09-05T14:37:41.619Z,26.30
2022-09-05T14:37:52.529Z,26.30
2022-09-05T14:40:29.307Z,26.30
2022-09-05T14:43:27.545Z,26.20
2022-09-05T14:46:17.725Z,26.20
2022-09-05T14:49:07.250Z,26.20
2022-09-05T14:51:58.400Z,26.20
2022-09-05T15:02:48.153Z,26.20
2022-09-05T15:02:53.945Z,26.20
2022-09-05T15:06:38.806Z,26.10
2022-09-05T15:12:17.766Z,26.20
2022-09-05T15:12:33.288Z,26.10
2022-09-05T15:15:20.353Z,26.10
2022-09-05T15:17:51.856Z,26.10
2022-09-05T15:20:40.392Z,26.10
2022-09-05T15:23:40.170Z,26.10
2022-09-05T15:26:25.706Z,26.10
2022-09-05T15:29:28.935Z,26.00
2022-09-05T15:32:18.554Z,26.00
2022-09-05T15:34:50.372Z,26.00
2022-09-05T15:37:50.859Z,26.00
2022-09-05T15:40:24.454Z,26.00
2022-09-05T15:42:57.141Z,26.00
2022-09-05T15:45:30.685Z,26.00
2022-09-05T15:48:09.102Z,26.00
2022-09-05T15:51:00.592Z,25.90
2022-09-05T15:53:51.754Z,25.90
2022-09-05T15:56:33.530Z,25.90
2022-09-05T15:59:10.146Z,25.90
2022-09-05T16:02:01.174Z,25.90
2022-09-05T16:10:27.037Z,25.90
2022-09-05T16:10:39.495Z,25.90
2022-09-05T16:10:56.100Z,25.90
2022-09-05T16:13:36.747Z,25.90
2022-09-05T16:23:11.475Z,25.80
2022-09-05T16:23:18.434Z,25.80
2022-09-05T16:23:26.015Z,25.90
2022-09-05T16:25:10.194Z,25.80
2022-09-05T16:27:58.428Z,25.80
2022-09-05T16:30:46.571Z,25.80
2022-09-05T16:33:18.204Z,25.80
2022-09-05T16:35:58.512Z,25.80
2022-09-05T16:38:49.708Z,25.80
2022-09-05T16:41:26.118Z,25.80
2022-09-05T16:44:00.813Z,25.80
2022-09-05T16:46:35.323Z,25.80
2022-09-05T16:49:11.815Z,25.80
2022-09-05T16:51:50.331Z,25.80
2022-09-05T16:54:27.865Z,25.80
2022-09-05T16:57:03.345Z,25.80
2022-09-05T16:59:37.101Z,25.80
2022-09-05T17:02:15.886Z,25.80
2022-09-05T17:05:13.705Z,25.70
2022-09-05T17:08:15.108Z,25.70
2022-09-05T17:10:57.257Z,25.70
2022-09-05T17:13:42.371Z,25.70
2022-09-05T17:16:22.307Z,25.70
2022-09-05T17:18:55.467Z,25.70
2022-09-05T17:22:33.595Z,25.70
2022-09-05T17:29:19.368Z,25.70
2022-09-05T17:29:26.227Z,25.70
2022-09-05T17:33:19.678Z,25.70
2022-09-05T17:36:08.643Z,25.70
2022-09-05T17:38:53.250Z,25.70
2022-09-05T17:41:54.347Z,25.70
2022-09-05T17:44:28.452Z,25.70
2022-09-05T17:47:16.183Z,25.60
2022-09-05T17:50:11.659Z,25.60
2022-09-05T17:53:25.747Z,25.60
2022-09-05T17:56:32.524Z,25.60
2022-09-05T17:59:30.978Z,25.60
2022-09-05T18:02:33.660Z,25.60
2022-09-05T18:05:14.943Z,25.60
2022-09-05T18:08:08.561Z,25.60
2022-09-05T18:11:14.110Z,25.60
2022-09-05T18:14:01.466Z,25.60
2022-09-05T18:17:35.374Z,25.60
2022-09-05T18:20:06.607Z,25.60
2022-09-05T18:22:41.074Z,25.60
2022-09-05T18:25:30.711Z,25.60
2022-09-05T18:28:15.211Z,25.60
2022-09-05T18:30:45.142Z,25.60
2022-09-05T18:33:55.057Z,25.60
2022-09-05T18:36:52.894Z,25.60
2022-09-05T18:39:49.426Z,25.60
2022-09-05T18:42:33.703Z,25.60
2022-09-05T18:45:33.486Z,25.60
2022-09-05T18:48:13.512Z,25.60
2022-09-05T18:50:46.410Z,25.60
2022-09-05T18:53:15.803Z,25.60
2022-09-05T18:56:11.205Z,25.60
2022-09-05T18:59:09.944Z,25.60
2022-09-05T19:01:56.711Z,25.60
2022-09-05T19:04:41.641Z,25.60
2022-09-05T19:07:22.533Z,25.60
2022-09-05T19:13:13.527Z,25.60
2022-09-05T19:15:53.388Z,25.50
2022-09-05T19:19:10.006Z,25.50
2022-09-05T19:21:46.608Z,25.50
2022-09-05T19:24:39.431Z,25.50
2022-09-05T19:28:13.946Z,25.50
2022-09-05T19:36:46.203Z,25.50
2022-09-05T19:36:51.772Z,25.50
2022-09-05T19:37:27.506Z,25.50
2022-09-05T19:46:17.059Z,25.50
2022-09-05T19:47:36.397Z,25.40
2022-09-05T19:47:39.459Z,25.50
2022-09-05T19:48:40.058Z,25.50
2022-09-05T19:51:27.072Z,25.40
2022-09-05T19:54:12.487Z,25.40
2022-09-05T19:56:51.597Z,25.40
2022-09-05T19:59:34.403Z,25.40
2022-09-05T20:02:14.145Z,25.40
2022-09-05T20:04:53.334Z,25.40
2022-09-05T20:07:28.585Z,25.40
2022-09-05T20:10:07.852Z,25.40
2022-09-05T20:12:50.607Z,25.40
2022-09-05T20:15:27.549Z,25.40
2022-09-05T20:18:30.654Z,25.40
2022-09-05T20:21:06.769Z,25.30
2022-09-05T20:23:41.622Z,25.30
2022-09-05T20:26:16.131Z,25.30
2022-09-05T20:28:54.820Z,25.30
2022-09-05T20:31:28.682Z,25.30
2022-09-05T20:34:36.984Z,25.30
2022-09-05T20:43:18.586Z,25.30
2022-09-05T20:43:23.236Z,25.30
2022-09-05T20:43:35.093Z,25.30
2022-09-05T20:47:23.470Z,25.30
2022-09-05T20:54:14.454Z,25.30
2022-09-05T20:54:22.373Z,25.30
2022-09-05T20:55:40.032Z,25.30
2022-09-05T20:58:17.345Z,25.30
2022-09-05T21:01:19.861Z,25.30
2022-09-05T21:03:57.749Z,25.20
2022-09-05T21:06:36.657Z,25.30
2022-09-05T21:09:24.468Z,25.30
2022-09-05T21:12:12.637Z,25.20
2022-09-05T21:15:31.735Z,25.20
2022-09-05T21:18:09.759Z,25.20
2022-09-05T21:20:43.358Z,25.20
2022-09-05T21:23:37.083Z,25.20
2022-09-05T21:26:23.022Z,25.20
2022-09-05T21:29:10.935Z,25.20
2022-09-05T21:31:57.448Z,25.20
2022-09-05T21:34:45.073Z,25.20
2022-09-05T21:37:19.730Z,25.20
2022-09-05T21:39:58.269Z,25.20
2022-09-05T21:45:38.498Z,25.20
2022-09-05T21:47:43.876Z,25.20
2022-09-05T21:48:27.232Z,25.20
2022-09-05T21:51:02.849Z,25.20
2022-09-05T21:58:02.133Z,25.20
2022-09-05T21:59:17.640Z,25.20
2022-09-05T21:59:52.376Z,25.10
2022-09-05T22:02:26.086Z,25.10
2022-09-05T22:05:03.647Z,25.10
2022-09-05T22:07:43.948Z,25.10
2022-09-05T22:10:19.822Z,25.10
2022-09-05T22:12:56.341Z,25.10
2022-09-05T22:15:34.735Z,25.10
2022-09-05T22:18:17.682Z,25.10
2022-09-05T22:21:32.470Z,25.10
2022-09-05T22:23:54.225Z,25.10
2022-09-05T22:26:30.135Z,25.10
2022-09-05T22:29:06.263Z,25.10
2022-09-05T22:31:36.898Z,25.10
2022-09-05T22:34:28.299Z,25.10
2022-09-05T22:37:00.928Z,25.10
2022-09-05T22:39:36.959Z,25.10
2022-09-05T22:42:12.588Z,25.10
2022-09-05T22:44:50.330Z,25.10
2022-09-05T22:47:30.030Z,25.10
2022-09-05T22:50:06.671Z,25.10
2022-09-05T22:52:39.903Z,25.00
2022-09-05T22:55:17.094Z,25.10
2022-09-05T22:57:49.209Z,25.10
2022-09-05T23:00:25.882Z,25.00
2022-09-05T23:03:16.183Z,25.00
2022-09-05T23:05:59.912Z,25.00
2022-09-05T23:08:38.481Z,25.00
2022-09-05T23:11:18.562Z,25.00
2022-09-05T23:14:03.087Z,25.00
2022-09-05T23:16:38.958Z,25.00
2022-09-05T23:19:12.765Z,25.00
2022-09-05T23:21:50.257Z,25.00
2022-09-05T23:24:29.235Z,25.00
2022-09-05T23:27:04.986Z,25.00
2022-09-05T23:29:49.535Z,25.00
2022-09-05T23:32:26.476Z,25.00
2022-09-05T23:35:08.654Z,25.00
2022-09-05T23:37:45.803Z,25.00
2022-09-05T23:40:26.008Z,25.00
2022-09-05T23:43:13.420Z,25.00
2022-09-05T23:45:54.239Z,25.00
2022-09-05T23:48:26.874Z,25.00
2022-09-05T23:51:07.411Z,24.90
2022-09-05T23:53:38.545Z,25.00
2022-09-05T23:56:15.649Z,25.00
2022-09-05T23:58:52.252Z,25.00
